Time;durP1;ratioP1;P1;durP2;ratioP2;P2;SDS_P1;SDS_P2;PMS_P1;PMS_P2;Temp;Humidity;BMP_temperature;BMP_pressure;BME280_temperature;BME280_humidity;BME280_pressure;Samples;Min_cycle;Max_cycle;Signal;HPM_P1;HPM_P2
2021/12/11 00:00:39;;;;;;;26.85;14.10;;;-2.10;99.90;;;-1.91;100.00;99299.06;5016572;28;20112;-86
2021/12/11 00:03:14;;;;;;;22.85;12.90;;;-2.20;99.90;;;-1.98;100.00;99295.94;5018415;28;20037;-85
2021/12/11 00:05:45;;;;;;;;;;;-2.30;99.90;;;-1.99;100.00;99309.94;5018131;28;20084;-87
2021/12/11 00:08:21;;;;;;;24.20;12.90;;;-2.30;99.90;;;-2.03;100.00;99314.41;5020322;28;19916;-87
2021/12/11 00:11:12;;;;;;;23.55;12.35;;;-2.30;99.90;;;-1.99;100.00;99320.88;5025275;28;20034;-86
2021/12/11 00:13:41;;;;;;;24.85;13.57;;;-2.30;99.90;;;-2.01;100.00;99328.56;5005108;28;20509;-88
2021/12/11 00:16:16;;;;;;;25.92;13.25;;;-2.30;99.90;;;-1.98;100.00;99342.44;5016079;28;20390;-86
2021/12/11 00:18:48;;;;;;;26.65;12.85;;;-2.30;99.90;;;-2.00;100.00;99341.16;5000008;28;20037;-88
2021/12/11 00:21:18;;;;;;;21.45;13.02;;;-2.30;99.90;;;-1.98;100.00;99347.94;5003629;28;20086;-85
2021/12/11 00:24:18;;;;;;;21.90;12.73;;;-2.30;99.90;;;-2.00;100.00;99355.63;5037214;28;20366;-88
2021/12/11 00:26:57;;;;;;;24.42;12.40;;;-2.30;99.90;;;-2.03;100.00;99364.47;5018726;28;20394;-86
2021/12/11 00:29:28;;;;;;;22.77;11.95;;;-2.40;99.90;;;-2.01;100.00;99369.63;5018646;28;20041;-87
2021/12/11 00:32:05;;;;;;;24.52;12.88;;;-2.40;99.90;;;-2.08;100.00;99366.47;5018403;28;20413;-85
2021/12/11 00:34:33;;;;;;;21.23;12.70;;;-2.40;99.90;;;-2.08;100.00;99374.69;5018853;28;20041;-86
2021/12/11 00:37:08;;;;;;;19.40;11.27;;;-2.40;99.90;;;-2.12;100.00;99369.03;5037345;28;20029;-86
2021/12/11 00:39:49;;;;;;;21.52;9.52;;;-2.40;99.90;;;-2.10;100.00;99380.47;5019302;28;20061;-87
2021/12/11 00:42:16;;;;;;;25.05;13.23;;;-2.40;99.90;;;-2.09;100.00;99376.63;5036243;28;20037;-87
2021/12/11 00:44:54;;;;;;;25.50;13.70;;;-2.40;99.90;;;-2.09;100.00;99375.81;5018930;28;20066;-87
2021/12/11 00:47:28;;;;;;;27.90;13.18;;;-2.40;99.90;;;-2.11;100.00;99384.31;5019489;28;20029;-87
2021/12/11 00:50:12;;;;;;;35.55;15.63;;;-2.40;99.90;;;-2.08;100.00;99391.09;5020340;28;20030;-86
2021/12/11 00:52:58;;;;;;;24.42;14.13;;;-2.40;99.90;;;-1.99;100.00;99398.28;5020095;28;20026;-87
2021/12/11 00:55:38;;;;;;;26.80;12.85;;;-2.30;99.90;;;-1.88;100.00;99407.09;5038513;28;20053;-87
2021/12/11 00:58:25;;;;;;;23.38;13.30;;;-2.30;99.90;;;-1.96;100.00;99414.13;5037362;28;20029;-88
2021/12/11 01:01:14;;;;;;;25.60;12.48;;;-2.30;99.90;;;-1.96;100.00;99414.13;5036795;28;20052;-88
2021/12/11 01:04:10;;;;;;;29.52;13.18;;;-2.30;99.90;;;-1.93;100.00;99424.44;5018165;28;20069;-87
2021/12/11 01:07:16;;;;;;;;;;;-2.30;99.90;;;-1.91;100.00;99437.81;5018234;28;20090;-87
2021/12/11 01:09:56;;;;;;;22.27;12.77;;;-2.30;99.90;;;-1.94;100.00;99441.16;5019590;28;19912;-86
2021/12/11 01:12:47;;;;;;;25.95;12.95;;;-2.30;99.90;;;-1.94;100.00;99443.88;5021594;28;20033;-85
2021/12/11 01:15:36;;;;;;;24.40;13.20;;;-2.30;99.90;;;-1.90;100.00;99456.66;5037491;28;20490;-85
2021/12/11 01:21:04;;;;;;;31.02;14.40;;;-2.30;99.90;;;-1.89;100.00;99461.00;5040138;28;20025;-87
2021/12/11 01:26:22;;;;;;;25.13;13.25;;;-2.20;99.90;;;-1.82;100.00;99468.81;5041289;28;20478;-86
2021/12/11 01:28:52;;;;;;;24.88;13.23;;;-2.20;99.90;;;-1.80;100.00;99485.75;5023457;28;20029;-87
2021/12/11 01:31:23;;;;;;;30.02;14.93;;;-2.10;99.90;;;-1.79;100.00;99495.56;5040846;28;20127;-87
2021/12/11 01:33:54;;;;;;;27.83;13.75;;;-2.20;99.90;;;-1.81;100.00;99490.41;5040087;28;20017;-86
2021/12/11 01:36:21;;;;;;;25.52;14.75;;;-2.20;99.90;;;-1.88;100.00;99500.94;5022496;28;20116;-85
2021/12/11 01:38:47;;;;;;;34.85;15.25;;;-2.20;99.90;;;-1.88;100.00;99509.16;5023933;28;20022;-84
2021/12/11 01:41:20;;;;;;;25.77;13.73;;;-2.20;99.90;;;-1.90;100.00;99511.41;5041229;28;20044;-85
2021/12/11 01:43:54;;;;;;;29.75;16.45;;;-2.20;99.90;;;-1.87;100.00;99531.88;5025095;28;20033;-86
2021/12/11 01:46:28;;;;;;;28.60;14.30;;;-2.20;99.90;;;-1.89;100.00;99534.06;5028424;28;20543;-84
2021/12/11 01:49:09;;;;;;;26.85;14.95;;;-2.20;99.90;;;-1.90;100.00;99544.25;5044012;28;20041;-88
2021/12/11 01:52:09;;;;;;;27.48;14.30;;;-2.20;99.90;;;-1.95;100.00;99543.50;5041109;28;20021;-87
2021/12/11 01:54:44;;;;;;;26.92;15.45;;;-2.30;99.90;;;-2.05;100.00;99551.91;5025882;28;20029;-87
2021/12/11 01:57:31;;;;;;;33.55;15.82;;;-2.40;99.90;;;-2.12;100.00;99563.25;5025827;28;20022;-86
2021/12/11 02:00:43;;;;;;;33.97;18.88;;;-2.40;99.90;;;-2.06;100.00;99562.06;5022663;28;20041;-89
2021/12/11 02:03:20;;;;;;;43.42;21.23;;;-2.40;99.90;;;-1.92;100.00;99575.72;5012170;28;20033;-89
2021/12/11 02:05:49;;;;;;;41.75;19.98;;;-2.30;99.90;;;-1.89;100.00;99575.13;5040893;28;20167;-88
2021/12/11 02:08:27;;;;;;;30.05;15.27;;;-2.30;99.90;;;-1.96;100.00;99591.97;5038402;28;20029;-86
2021/12/11 02:11:08;;;;;;;29.50;15.95;;;-2.30;99.90;;;-2.09;100.00;99590.00;5021714;28;20040;-88
2021/12/11 02:13:56;;;;;;;28.67;14.52;;;-2.40;99.90;;;-2.35;100.00;99591.56;5022607;28;20065;-87
2021/12/11 02:16:48;;;;;;;33.50;14.95;;;-2.60;99.90;;;-2.34;100.00;99593.16;5022865;28;20037;-85
2021/12/11 02:19:30;;;;;;;31.02;15.95;;;-2.60;99.90;;;-2.19;100.00;99598.38;5022968;28;20061;-87
2021/12/11 02:22:14;;;;;;;41.45;19.02;;;-2.50;99.90;;;-2.07;100.00;99606.13;5021484;28;20147;-86
2021/12/11 02:24:45;;;;;;;34.00;17.65;;;-2.40;99.90;;;-1.93;100.00;99615.19;5021195;28;20033;-89
2021/12/11 02:27:57;;;;;;;30.13;15.55;;;-2.30;99.90;;;-1.88;100.00;99621.38;5039607;28;20029;-86
2021/12/11 02:30:47;;;;;;;38.50;17.60;;;-2.20;99.90;;;-1.84;100.00;99627.03;5018842;28;20068;-86
2021/12/11 02:33:35;;;;;;;30.60;15.07;;;-2.20;99.90;;;-1.90;100.00;99636.47;5021827;28;20029;-88
2021/12/11 02:36:24;;;;;;;34.53;16.33;;;-2.20;99.90;;;-1.91;100.00;99640.31;5022194;28;20026;-87
2021/12/11 02:39:29;;;;;;;29.23;15.13;;;-2.20;99.90;;;-1.89;100.00;99644.34;5039633;28;20056;-86
2021/12/11 02:42:08;;;;;;;31.25;16.42;;;-2.20;99.90;;;-1.88;100.00;99646.00;5021595;28;20116;-89
2021/12/11 02:44:43;;;;;;;36.55;16.25;;;-2.20;99.90;;;-1.81;100.00;99651.91;5021910;28;20030;-86
2021/12/11 02:47:21;;;;;;;34.65;17.75;;;-2.10;99.90;;;-1.76;100.00;99654.53;5023045;28;20025;-89
2021/12/11 02:50:00;;;;;;;32.13;17.88;;;-2.10;99.90;;;-1.71;100.00;99646.25;5038683;28;20021;-87
2021/12/11 02:52:59;;;;;;;35.95;18.73;;;-2.10;99.90;;;-1.69;100.00;99649.47;5021850;28;20073;-86
2021/12/11 02:55:43;;;;;;;40.67;19.98;;;-2.10;99.90;;;-1.60;100.00;99653.13;5018472;28;20029;-88
2021/12/11 02:58:26;;;;;;;39.95;20.33;;;-1.90;99.90;;;-1.47;100.00;99650.72;5021225;28;20100;-88
2021/12/11 03:01:26;;;;;;;44.35;19.40;;;-1.80;99.90;;;-1.31;100.00;99673.94;5020792;28;20048;-86
2021/12/11 03:04:21;;;;;;;40.05;20.00;;;-1.70;99.90;;;-1.30;100.00;99670.94;5021726;28;20029;-86
2021/12/11 03:06:52;;;;;;;37.08;17.63;;;-1.70;99.90;;;-1.39;100.00;99674.66;5021971;28;20036;-87
2021/12/11 03:09:32;;;;;;;32.03;16.80;;;-1.80;99.90;;;-1.48;100.00;99685.53;5021206;28;20112;-87
2021/12/11 03:12:07;;;;;;;26.48;16.27;;;-1.90;99.90;;;-1.57;100.00;99686.53;5020665;28;20033;-89
2021/12/11 03:14:33;;;;;;;32.03;17.55;;;-1.90;99.90;;;-1.67;100.00;99682.84;5022277;28;20098;-85
2021/12/11 03:17:00;;;;;;;39.45;18.45;;;-2.00;99.90;;;-1.75;100.00;99682.72;5037365;28;20090;-85
2021/12/11 03:19:34;;;;;;;41.20;20.13;;;-2.10;99.90;;;-1.74;100.00;99684.34;5020434;28;20029;-85
2021/12/11 03:22:06;;;;;;;39.80;21.15;;;-2.10;99.90;;;-1.74;100.00;99687.09;5029845;28;20026;-87
2021/12/11 03:24:34;;;;;;;40.03;20.65;;;-2.00;99.90;;;-1.64;100.00;99693.19;5003280;28;20029;-85
2021/12/11 03:27:01;;;;;;;45.33;21.45;;;-2.00;99.90;;;-1.55;100.00;99703.44;5002716;28;20033;-86
2021/12/11 03:29:28;;;;;;;47.42;21.95;;;-1.90;99.90;;;-1.47;100.00;99713.69;5003923;28;20045;-85
2021/12/11 03:31:54;;;;;;;38.42;21.15;;;-1.80;99.90;;;-1.47;100.00;99714.50;5004466;28;20065;-85
2021/12/11 03:34:27;;;;;;;37.90;16.65;;;-1.90;99.90;;;-1.55;100.00;99712.47;5021956;28;20097;-88
2021/12/11 03:36:59;;;;;;;31.88;17.88;;;-1.90;99.90;;;-1.58;100.00;99721.31;5008058;28;20132;-87
2021/12/11 03:39:39;;;;;;;39.13;18.08;;;-2.00;99.90;;;-1.61;100.00;99738.34;5006696;28;20025;-86
2021/12/11 03:42:22;;;;;;;35.50;17.55;;;-2.00;99.90;;;-1.58;100.00;99737.72;5020612;28;20034;-84
2021/12/11 03:44:48;;;;;;;31.05;17.33;;;-2.00;99.90;;;-1.61;100.00;99746.53;5011660;28;20437;-84
2021/12/11 03:47:30;;;;;;;41.17;18.20;;;-2.00;99.90;;;-1.64;100.00;99742.47;5013835;28;20057;-87
2021/12/11 03:49:57;;;;;;;33.17;18.20;;;-2.00;99.90;;;-1.68;100.00;99749.66;5014429;28;20080;-87
2021/12/11 03:52:26;;;;;;;35.40;18.30;;;-2.00;99.90;;;-1.73;100.00;99746.19;5004642;28;20052;-86
2021/12/11 03:54:54;;;;;;;35.45;18.33;;;-2.10;99.90;;;-1.75;100.00;99749.22;5007037;28;20032;-87
2021/12/11 03:57:28;;;;;;;32.92;18.63;;;-2.10;99.90;;;-1.75;100.00;99756.63;5009683;28;20026;-86
2021/12/11 03:59:56;;;;;;;35.08;18.02;;;-2.10;99.90;;;-1.81;100.00;99763.28;5028036;28;20026;-86
2021/12/11 04:02:32;;;;;;;44.75;20.67;;;-2.10;99.90;;;-1.84;100.00;99767.44;5011301;28;20045;-86
2021/12/11 04:05:04;;;;;;;37.08;20.67;;;-2.10;99.90;;;-1.83;100.00;99769.06;5005934;28;20025;-86
2021/12/11 04:07:43;;;;;;;44.05;20.95;;;-2.10;99.90;;;-1.81;100.00;99771.50;5003940;28;20573;-85
2021/12/11 04:10:14;;;;;;;37.47;20.65;;;-2.10;99.90;;;-1.77;100.00;99781.56;5003593;28;20025;-86
2021/12/11 04:12:40;;;;;;;42.88;21.70;;;-2.10;99.90;;;-1.73;100.00;99777.09;5022369;28;20026;-87
2021/12/11 04:15:09;;;;;;;43.40;23.63;;;-2.10;99.90;;;-1.63;100.00;99787.91;5004243;28;20393;-86
2021/12/11 04:17:37;;;;;;;46.38;22.02;;;-2.00;99.90;;;-1.54;100.00;99795.44;5020946;28;20030;-86
2021/12/11 04:20:13;;;;;;;47.15;24.02;;;-1.90;99.90;;;-1.38;100.00;99792.13;5001952;28;20263;-88
2021/12/11 04:22:43;;;;;;;57.15;25.10;;;-1.80;99.90;;;-1.28;100.00;99796.63;5016673;28;20401;-88
2021/12/11 04:25:15;;;;;;;50.75;24.83;;;-1.70;99.90;;;-1.22;100.00;99806.41;5039537;28;20426;-88
2021/12/11 04:27:43;;;;;;;44.70;22.10;;;-1.60;99.90;;;-1.23;100.00;99810.25;5021625;28;20123;-86
2021/12/11 04:30:14;;;;;;;56.05;25.80;;;-1.60;99.90;;;-1.23;100.00;99816.53;5022186;28;20041;-88
2021/12/11 04:32:42;;;;;;;49.17;24.15;;;-1.60;99.90;;;-1.12;100.00;99817.97;5021861;28;20022;-86
2021/12/11 04:35:13;;;;;;;48.65;23.33;;;-1.50;99.90;;;-1.16;100.00;99805.19;5022538;28;20416;-87
2021/12/11 04:37:41;;;;;;;46.38;23.48;;;-1.50;99.90;;;-1.18;100.00;99810.16;5039597;28;20025;-86
2021/12/11 04:40:21;;;;;;;47.20;24.50;;;-1.50;99.90;;;-1.12;100.00;99811.69;5021628;28;20034;-86
2021/12/11 04:42:57;;;;;;;60.63;24.02;;;-1.50;99.90;;;-1.12;100.00;99817.97;5022315;28;20148;-85
2021/12/11 04:45:37;;;;;;;51.67;23.67;;;-1.50;99.90;;;-1.12;100.00;99830.84;5040196;28;20343;-86
2021/12/11 04:48:41;;;;;;;49.72;24.65;;;-1.50;99.90;;;-1.09;100.00;99827.50;5025193;28;20064;-86
2021/12/11 04:51:23;;;;;;;51.95;23.95;;;-1.50;99.90;;;-1.06;100.00;99835.94;5044213;28;20025;-86
2021/12/11 04:57:20;;;;;;;58.97;23.02;;;-1.40;99.90;;;-1.04;100.00;99843.06;5035233;28;20068;-86
2021/12/11 05:10:34;;;;;;;48.55;20.70;;;-1.50;99.90;;;-1.18;100.00;99870.41;5041601;28;20033;-88
2021/12/11 05:13:00;;;;;;;43.30;20.60;;;-1.50;99.90;;;-1.21;100.00;99879.25;5023518;28;20044;-85
2021/12/11 05:15:40;;;;;;;48.72;21.73;;;-1.60;99.90;;;-1.28;100.00;99882.38;5023105;28;20048;-85
2021/12/11 05:18:16;;;;;;;47.22;21.63;;;-1.70;99.90;;;-1.37;100.00;99891.56;5023690;28;20048;-84
2021/12/11 05:20:49;;;;;;;47.33;21.05;;;-1.70;99.90;;;-1.41;100.00;99888.59;5023493;28;20040;-87
2021/12/11 05:23:19;;;;;;;50.50;23.80;;;-1.70;99.90;;;-1.41;100.00;99896.81;5035339;28;20132;-87
2021/12/11 05:25:46;;;;;;;56.35;26.08;;;-1.70;99.90;;;-1.35;100.00;99894.81;5036500;28;20078;-87
2021/12/11 05:28:15;;;;;;;62.85;23.85;;;-1.70;99.90;;;-1.33;100.00;99903.56;5019687;28;20040;-86
2021/12/11 05:30:49;;;;;;;55.72;23.80;;;-1.70;99.90;;;-1.32;100.00;99896.97;5037010;28;20069;-86
2021/12/11 05:33:19;;;;;;;60.88;23.77;;;-1.70;99.90;;;-1.26;100.00;99907.56;5021390;28;20030;-87
2021/12/11 05:35:46;;;;;;;61.35;26.35;;;-1.60;99.90;;;-1.30;100.00;99908.44;5038063;28;20478;-87
2021/12/11 05:38:17;;;;;;;55.17;23.23;;;-1.60;99.90;;;-1.30;100.00;99909.25;5022550;28;20512;-86
2021/12/11 05:40:51;;;;;;;56.55;22.50;;;-1.70;99.90;;;-1.28;100.00;99922.63;5038194;28;20074;-87
2021/12/11 05:43:19;;;;;;;53.92;23.75;;;-1.60;99.90;;;-1.27;100.00;99925.09;5020490;28;20092;-87
2021/12/11 05:45:46;;;;;;;53.63;23.17;;;-1.60;99.90;;;-1.29;100.00;99938.28;5020282;28;20029;-86
2021/12/11 05:48:14;;;;;;;52.47;23.13;;;-1.60;99.90;;;-1.33;100.00;99934.50;5037271;28;20140;-86
2021/12/11 05:50:53;;;;;;;53.75;23.88;;;-1.70;99.90;;;-1.33;100.00;99950.13;5037794;28;20053;-86
2021/12/11 05:53:21;;;;;;;59.63;23.35;;;-1.70;99.90;;;-1.29;100.00;99945.69;5038513;28;20129;-86
2021/12/11 05:55:52;;;;;;;56.20;23.30;;;-1.70;99.90;;;-1.28;100.00;99955.50;5022250;28;20113;-86
2021/12/11 05:59:05;;;;;;;63.97;23.13;;;-1.70;99.90;;;-1.27;100.00;99952.50;5020536;28;20091;-86
2021/12/11 06:01:06;;;;;;;55.85;22.98;;;-1.70;99.90;;;-1.35;100.00;99964.09;5010291;28;20124;-86
2021/12/11 06:03:37;;;;;;;60.05;24.05;;;-1.70;99.90;;;-1.40;100.00;99972.41;5036418;28;20029;-87
2021/12/11 06:06:05;;;;;;;51.83;23.85;;;-1.70;99.90;;;-1.44;100.00;99976.00;5035713;28;20030;-87
2021/12/11 06:08:32;;;;;;;61.35;23.95;;;-1.80;99.90;;;-1.45;100.00;99974.41;5019400;28;20569;-84
2021/12/11 06:11:00;;;;;;;51.28;24.08;;;-1.80;99.90;;;-1.45;100.00;99985.38;5019480;28;20105;-86
2021/12/11 06:13:28;;;;;;;75.25;25.73;;;-1.80;99.90;;;-1.42;100.00;99982.03;5036333;28;20054;-87
2021/12/11 06:15:57;;;;;;;59.88;23.85;;;-1.80;99.90;;;-1.38;100.00;99991.28;5047131;28;20125;-84
2021/12/11 06:18:24;;;;;;;64.95;25.80;;;-1.70;99.90;;;-1.37;100.00;99993.72;5028281;28;20036;-85
2021/12/11 06:20:50;;;;;;;64.22;26.98;;;-1.70;99.90;;;-1.35;100.00;100001.66;5038027;28;20037;-86
2021/12/11 06:23:19;;;;;;;67.70;26.77;;;-1.70;99.90;;;-1.32;100.00;100015.59;5020516;28;20030;-86
2021/12/11 06:25:46;;;;;;;61.45;24.33;;;-1.70;99.90;;;-1.30;100.00;100018.00;5021927;28;20033;-86
2021/12/11 06:28:14;;;;;;;59.88;24.90;;;-1.70;99.90;;;-1.32;100.00;100021.06;5022000;28;20037;-87
2021/12/11 06:30:41;;;;;;;52.50;22.88;;;-1.70;99.90;;;-1.35;100.00;100029.84;5022806;28;20397;-86
2021/12/11 06:33:09;;;;;;;52.08;22.98;;;-1.70;99.90;;;-1.48;100.00;100027.84;5022606;28;20033;-86
2021/12/11 06:35:49;;;;;;;54.30;22.45;;;-1.90;99.90;;;-1.56;100.00;100031.22;5022882;28;20025;-88
2021/12/11 06:38:31;;;;;;;51.55;21.35;;;-2.00;99.90;;;-1.78;100.00;100040.00;5022579;28;20033;-86
2021/12/11 06:40:58;;;;;;;38.20;19.33;;;-2.20;99.90;;;-1.90;100.00;100046.97;5038240;28;20033;-88
2021/12/11 06:43:25;;;;;;;42.97;19.95;;;-2.30;99.90;;;-1.98;100.00;100050.34;5021413;28;20037;-87
2021/12/11 06:45:52;;;;;;;57.25;22.70;;;-2.40;99.90;;;-2.04;100.00;100062.44;5020770;28;20033;-86
2021/12/11 06:48:19;;;;;;;64.28;24.35;;;-2.40;99.90;;;-1.86;100.00;100062.50;5020531;28;20038;-85
2021/12/11 06:50:48;;;;;;;74.50;26.48;;;-2.30;99.90;;;-1.69;100.00;100065.63;5039012;28;20037;-87
2021/12/11 06:53:44;;;;;;;94.95;31.13;;;-2.10;99.90;;;-1.44;100.00;100074.63;5021358;28;20061;-86
2021/12/11 06:56:17;;;;;;;81.45;30.08;;;-1.90;99.90;;;-1.24;100.00;100088.06;5020987;28;20063;-88
2021/12/11 06:58:43;;;;;;;100.10;31.73;;;-1.70;99.90;;;-1.13;100.00;100095.88;5037384;28;20131;-87
2021/12/11 07:01:12;;;;;;;98.90;33.28;;;-1.60;99.90;;;-0.93;100.00;100100.25;5039712;28;20041;-87
2021/12/11 07:03:40;;;;;;;118.68;35.08;;;-1.40;99.90;;;-0.82;100.00;100100.91;5021230;28;20040;-87
2021/12/11 07:06:08;;;;;;;106.95;33.53;;;-1.30;99.90;;;-0.72;100.00;100109.81;5021709;28;20131;-86
2021/12/11 07:08:38;;;;;;;114.18;34.80;;;-1.20;99.90;;;-0.69;100.00;100111.97;5038947;28;20037;-86
2021/12/11 07:11:06;;;;;;;102.53;34.13;;;-1.10;99.90;;;-0.61;100.00;100105.00;5022180;28;20057;-88
2021/12/11 07:13:33;;;;;;;107.88;34.78;;;-1.00;99.90;;;-0.48;100.00;100109.72;5021809;28;20034;-86
2021/12/11 07:15:59;;;;;;;119.63;37.60;;;-1.00;99.90;;;-0.51;100.00;100120.50;5040704;28;20025;-86
2021/12/11 07:18:27;;;;;;;106.35;36.63;;;-0.90;99.90;;;-0.45;100.00;100122.03;5022651;28;20092;-85
2021/12/11 07:20:55;;;;;;;113.35;36.95;;;-0.80;99.90;;;-0.37;100.00;100132.31;5022266;28;20061;-87
2021/12/11 07:23:22;;;;;;;104.72;32.75;;;-0.80;99.90;;;-0.37;100.00;100132.31;5003076;28;20125;-85
2021/12/11 07:25:58;;;;;;;107.10;35.42;;;-0.80;99.90;;;-0.33;100.00;100144.34;5002588;28;20029;-88
2021/12/11 07:28:25;;;;;;;117.53;36.15;;;-0.70;99.90;;;-0.27;100.00;100135.75;5002608;28;20072;-86
2021/12/11 07:30:57;;;;;;;119.78;36.17;;;-0.70;99.90;;;-0.22;100.00;100143.88;5000808;28;20037;-87
2021/12/11 07:33:24;;;;;;;125.05;38.10;;;-0.60;99.90;;;-0.15;100.00;100144.31;5001004;28;20040;-87
2021/12/11 07:35:52;;;;;;;117.88;37.80;;;-0.60;99.90;;;-0.16;100.00;100150.13;5001489;28;20034;-88
2021/12/11 07:38:21;;;;;;;125.47;37.35;;;-0.50;99.90;;;-0.10;100.00;100154.41;5020359;28;20053;-85
2021/12/11 07:40:55;;;;;;;133.23;38.53;;;-0.50;99.90;;;-0.01;100.00;100167.16;5018834;28;20044;-87
2021/12/11 07:43:26;;;;;;;129.15;36.30;;;-0.50;99.90;;;0.08;100.00;100177.44;5001592;28;20049;-86
2021/12/11 07:46:01;;;;;;;126.65;38.10;;;-0.40;99.90;;;0.16;100.00;100180.31;5001900;28;20034;-86
2021/12/11 07:48:27;;;;;;;132.20;41.30;;;-0.30;99.90;;;0.17;100.00;100184.69;5002013;28;20122;-86
2021/12/11 07:50:54;;;;;;;136.27;41.20;;;-0.30;99.90;;;0.26;100.00;100193.03;5018263;28;20089;-89
2021/12/11 07:53:21;;;;;;;134.73;38.63;;;-0.20;99.90;;;0.32;100.00;100200.91;5001426;28;20486;-85
2021/12/11 07:55:49;;;;;;;129.30;39.55;;;-0.20;99.90;;;0.37;100.00;100216.50;5002765;28;20033;-84
2021/12/11 07:58:16;;;;;;;136.63;39.83;;;-0.10;99.90;;;0.32;100.00;100214.63;5003264;28;20026;-87
2021/12/11 08:00:44;;;;;;;134.95;38.50;;;-0.10;99.90;;;0.45;100.00;100213.06;5020621;28;20037;-85
2021/12/11 08:03:14;;;;;;;138.40;39.58;;;0.00;99.90;;;0.50;100.00;100219.28;5002979;28;20030;-85
2021/12/11 08:05:46;;;;;;;133.88;40.30;;;0.10;99.90;;;0.58;100.00;100222.44;5020691;28;20034;-87
2021/12/11 08:08:12;;;;;;;139.55;36.72;;;0.10;99.90;;;0.65;100.00;100233.84;5003324;28;20064;-87
2021/12/11 08:10:45;;;;;;;122.38;38.10;;;0.20;99.90;;;0.73;100.00;100244.16;5001774;28;20402;-86
2021/12/11 08:13:15;;;;;;;125.93;36.33;;;0.20;99.90;;;0.76;100.00;100243.53;5001763;28;20401;-88
2021/12/11 08:15:44;;;;;;;118.03;36.90;;;0.20;99.90;;;0.80;100.00;100247.31;5019857;28;20034;-87
2021/12/11 08:18:13;;;;;;;127.32;38.25;;;0.30;99.90;;;0.76;100.00;100246.28;5001878;28;20131;-87
2021/12/11 08:20:45;;;;;;;137.10;38.60;;;0.30;99.90;;;0.83;100.00;100252.22;5002124;28;20477;-88
2021/12/11 08:23:16;;;;;;;127.93;37.90;;;0.30;99.90;;;0.91;100.00;100257.00;5021034;28;20116;-86
2021/12/11 08:25:48;;;;;;;139.55;38.22;;;0.40;99.90;;;0.96;100.00;100256.91;5022771;28;20109;-89
2021/12/11 08:28:26;;;;;;;132.70;41.63;;;0.40;99.90;;;1.01;100.00;100260.38;5022907;28;20048;-87
2021/12/11 08:30:53;;;;;;;141.57;36.90;;;0.50;99.90;;;0.95;100.00;100274.53;5043495;28;20030;-88
2021/12/11 08:33:22;;;;;;;124.40;36.78;;;0.50;99.90;;;1.03;100.00;100273.81;5047181;28;20034;-85
2021/12/11 08:35:51;;;;;;;123.57;37.03;;;0.50;99.90;;;1.05;100.00;100271.59;5035441;28;20033;-86
2021/12/11 08:38:19;;;;;;;127.18;37.65;;;0.50;99.90;;;1.06;100.00;100270.44;5019557;28;20029;-85
2021/12/11 08:40:53;;;;;;;121.55;35.47;;;0.60;99.90;;;1.14;100.00;100288.19;5019395;28;20033;-85
2021/12/11 08:43:22;;;;;;;115.18;33.78;;;0.60;99.90;;;1.15;100.00;100287.91;5018926;28;20044;-87
2021/12/11 08:46:10;;;;;;;131.20;38.47;;;0.60;99.90;;;1.16;100.00;100281.25;5017861;28;20026;-86
2021/12/11 08:48:49;;;;;;;116.43;36.75;;;0.70;99.90;;;1.06;100.00;100284.19;5018932;28;20033;-86
2021/12/11 08:51:46;;;;;;;127.20;36.75;;;0.70;99.90;;;1.26;100.00;100289.31;5020342;28;20030;-88
2021/12/11 08:54:12;;;;;;;;;;;0.70;99.90;;;1.30;100.00;100297.78;5038355;28;20060;-87
2021/12/11 08:56:41;;;;;;;120.57;32.90;;;0.80;99.90;;;1.31;100.00;100307.69;5038261;28;19936;-85
2021/12/11 08:59:17;;;;;;;106.57;33.60;;;0.80;99.90;;;1.35;100.00;100317.75;5020618;28;20034;-88
2021/12/11 09:02:05;;;;;;;109.15;34.42;;;0.80;99.90;;;1.39;100.00;100315.22;5036822;28;20094;-85
2021/12/11 09:05:05;;;;;;;101.97;35.05;;;0.80;99.90;;;1.29;100.00;100321.72;5021305;28;20055;-88
2021/12/11 09:07:44;;;;;;;118.25;36.55;;;0.80;99.90;;;1.44;100.00;100323.38;5019549;28;20029;-88
2021/12/11 09:10:43;;;;;;;113.47;35.00;;;0.90;99.90;;;1.42;100.00;100320.91;5019983;28;20049;-86
2021/12/11 09:14:02;;;;;;;119.78;34.90;;;0.90;99.90;;;1.35;100.00;100336.22;5037448;28;20017;-87
2021/12/11 09:16:49;;;;;;;104.95;32.03;;;0.90;99.90;;;1.39;100.00;100332.53;5042031;28;20473;-87
2021/12/11 09:19:59;;;;;;;;;;;1.00;99.90;;;1.46;100.00;100337.63;5027878;28;20025;-90
2021/12/11 09:22:44;;;;;;;112.40;31.90;;;1.00;99.90;;;1.64;100.00;100341.44;5022887;28;19913;-86
2021/12/11 09:25:38;;;;;;;106.28;34.33;;;1.10;99.90;;;1.73;100.00;100345.09;5027438;28;20033;-87
2021/12/11 09:28:24;;;;;;;102.80;33.78;;;1.10;99.90;;;1.77;100.00;100343.31;5026328;28;20037;-88
2021/12/11 09:31:24;;;;;;;82.78;27.48;;;1.30;99.90;;;1.92;100.00;100345.78;5028569;28;20030;-88
2021/12/11 09:34:13;;;;;;;108.32;35.40;;;1.30;99.90;;;1.92;100.00;100351.28;5036649;28;20406;-87
2021/12/11 09:36:54;;;;;;;110.55;35.65;;;1.40;99.90;;;1.96;100.00;100360.53;5031940;28;20035;-86
2021/12/11 09:39:43;;;;;;;110.45;34.78;;;1.40;99.90;;;1.98;100.00;100366.59;5032146;28;20033;-86
2021/12/11 09:42:08;;;;;;;101.35;34.38;;;1.50;99.90;;;2.06;100.00;100377.69;5032587;28;20280;-88
2021/12/11 09:44:53;;;;;;;91.22;34.10;;;1.50;99.90;;;2.08;100.00;100374.63;5050704;28;20034;-86
2021/12/11 09:47:35;;;;;;;99.30;32.33;;;1.60;99.90;;;2.28;100.00;100376.91;5032398;28;20366;-87
2021/12/11 09:50:14;;;;;;;95.07;33.45;;;1.60;99.90;;;2.30;100.00;100377.44;5033074;28;20049;-86
2021/12/11 09:52:45;;;;;;;105.10;34.40;;;1.70;99.90;;;2.28;100.00;100385.19;5051050;28;20139;-85
2021/12/11 09:55:44;;;;;;;92.03;33.67;;;1.70;99.90;;;2.43;100.00;100393.13;5033815;28;20451;-88
2021/12/11 09:58:19;;;;;;;90.93;31.88;;;1.80;99.90;;;2.43;100.00;100393.13;5032518;28;20056;-88
2021/12/11 10:01:06;;;;;;;91.57;34.30;;;1.80;99.90;;;2.42;100.00;100385.97;5038451;28;20033;-88
2021/12/11 10:03:48;;;;;;;97.95;32.80;;;1.90;99.90;;;2.50;100.00;100399.03;5038754;28;20029;-87
2021/12/11 10:06:41;;;;;;;93.68;34.17;;;1.90;99.90;;;2.63;100.00;100392.66;5030574;28;20032;-86
2021/12/11 10:09:35;;;;;;;96.57;35.30;;;2.00;99.90;;;2.47;100.00;100402.38;5028625;28;20135;-87
2021/12/11 10:12:40;;;;;;;95.70;34.50;;;2.00;99.90;;;2.57;100.00;100412.38;5029141;28;20032;-84
2021/12/11 10:15:30;;;;;;;93.25;32.25;;;2.00;99.90;;;2.72;100.00;100403.75;5028691;28;20038;-86
2021/12/11 10:18:20;;;;;;;83.65;33.35;;;2.10;99.90;;;2.73;100.00;100401.81;5030365;28;20466;-84
2021/12/11 10:20:59;;;;;;;94.75;33.33;;;2.10;99.90;;;2.76;100.00;100393.72;5013335;28;20060;-86
2021/12/11 10:23:32;;;;;;;90.65;32.35;;;2.20;99.90;;;2.71;100.00;100393.84;5028942;28;20520;-85
2021/12/11 10:26:09;;;;;;;99.20;35.25;;;2.20;99.90;;;2.87;100.00;100394.28;5046939;28;20057;-85
2021/12/11 10:28:43;;;;;;;88.53;33.08;;;2.30;99.90;;;2.73;100.00;100399.06;5029932;28;20087;-85
2021/12/11 10:31:28;;;;;;;97.75;33.38;;;2.40;99.90;;;2.85;100.00;100402.09;5030913;28;20036;-86
2021/12/11 10:34:04;;;;;;;97.57;36.63;;;2.40;99.90;;;2.89;100.00;100403.88;5031384;28;20045;-85
2021/12/11 10:36:58;;;;;;;95.07;32.80;;;2.40;99.90;;;2.98;100.00;100406.72;5032079;28;20044;-87
2021/12/11 10:39:25;;;;;;;88.07;32.53;;;2.50;99.90;;;3.19;100.00;100405.91;5048689;28;20029;-85
2021/12/11 10:41:53;;;;;;;95.50;33.83;;;2.60;99.90;;;3.33;100.00;100414.09;5033263;28;20093;-88
2021/12/11 10:44:33;;;;;;;89.13;33.78;;;2.70;99.90;;;3.47;100.00;100409.28;5051801;28;20029;-85
2021/12/11 10:47:12;;;;;;;92.10;34.45;;;2.80;99.90;;;3.45;100.00;100417.09;5039084;28;20013;-85
2021/12/11 10:49:41;;;;;;;84.40;31.70;;;2.90;99.90;;;3.60;100.00;100413.91;5036504;28;20057;-84
2021/12/11 10:52:34;;;;;;;86.97;32.88;;;2.90;99.90;;;3.54;100.00;100411.59;5027940;28;20171;-85
2021/12/11 10:55:12;;;;;;;86.72;32.45;;;3.00;99.90;;;3.67;100.00;100411.50;5023077;28;20497;-85
2021/12/11 10:57:39;;;;;;;83.47;32.97;;;3.00;99.90;;;3.76;100.00;100421.81;5044755;28;20028;-85